Time;durP1;ratioP1;P1;durP2;ratioP2;P2;SDS_P1;SDS_P2;PMS_P1;PMS_P2;Temp;Humidity;BMP_temperature;BMP_pressure;BME280_temperature;BME280_humidity;BME280_pressure;Samples;Min_cycle;Max_cycle;Signal;HPM_P1;HPM_P2
2023/01/07 00:00:19;;;;;;;0.30;0.10;;;;;;;13.21;100.00;98529.59;7388427;19;20019;-82
2023/01/07 00:02:46;;;;;;;0.17;0.17;;;;;;;14.18;100.00;98530.09;7387373;19;20435;-81
2023/01/07 00:05:12;;;;;;;0.10;0.00;;;;;;;13.39;100.00;98536.50;7385797;19;20019;-82
2023/01/07 00:07:38;;;;;;;0.00;0.00;;;;;;;13.08;100.00;98534.34;7388947;19;20018;-82
2023/01/07 00:10:04;;;;;;;0.38;0.20;;;;;;;13.96;100.00;98529.66;7389757;19;20552;-83
2023/01/07 00:12:31;;;;;;;0.73;0.13;;;;;;;13.24;100.00;98528.56;7385777;19;20010;-83
2023/01/07 00:14:57;;;;;;;0.30;0.10;;;;;;;13.89;100.00;98513.47;7391696;19;20412;-82
2023/01/07 00:17:23;;;;;;;2.13;0.10;;;;;;;13.54;100.00;98501.22;7387581;19;20078;-82
2023/01/07 00:19:49;;;;;;;0.35;0.20;;;;;;;14.14;100.00;98495.28;7385727;19;20496;-82
2023/01/07 00:22:15;;;;;;;2.15;0.45;;;;;;;13.87;100.00;98493.66;7385241;19;20022;-82
2023/01/07 00:24:41;;;;;;;0.30;0.00;;;;;;;14.12;100.00;98487.41;7387226;19;20467;-83
2023/01/07 00:27:08;;;;;;;0.10;0.10;;;;;;;15.03;100.00;98489.66;7385827;19;20021;-83
2023/01/07 00:29:34;;;;;;;0.30;0.10;;;;;;;15.51;100.00;98473.66;7384031;19;20010;-82
2023/01/07 00:32:00;;;;;;;2.22;0.20;;;;;;;17.17;100.00;98469.59;7383586;19;20480;-82
2023/01/07 00:34:26;;;;;;;0.50;0.28;;;;;;;16.32;100.00;98468.75;7387297;19;20014;-83
2023/01/07 00:37:48;;;;;;;1.17;0.47;;;;;;;16.55;100.00;98458.47;7386260;19;20346;-83
2023/01/07 00:39:39;;;;;;;11.20;0.52;;;;;;;16.99;100.00;98457.28;7386150;19;20093;-83
2023/01/07 00:44:49;;;;;;;0.85;0.43;;;;;;;16.68;100.00;98439.47;7386740;19;20014;-82
2023/01/07 00:47:15;;;;;;;4.07;0.30;;;;;;;17.47;100.00;98438.75;7386340;19;20033;-82
2023/01/07 00:49:41;;;;;;;0.30;0.30;;;;;;;16.53;100.00;98428.09;7384298;19;20666;-82
2023/01/07 00:52:07;;;;;;;1.05;0.40;;;;;;;17.42;100.00;98428.41;7384859;19;20022;-83
2023/01/07 00:54:34;;;;;;;0.20;0.00;;;;;;;16.19;100.00;98427.44;7387568;19;20026;-82
2023/01/07 00:57:00;;;;;;;0.22;0.10;;;;;;;13.68;100.00;98416.09;7389964;19;20026;-82
2023/01/07 00:59:26;;;;;;;0.25;0.25;;;;;;;13.64;100.00;98415.63;7383218;19;20042;-82
2023/01/07 01:01:52;;;;;;;1.05;0.30;;;;;;;13.49;100.00;98398.56;7392676;19;20475;-82
2023/01/07 01:04:18;;;;;;;1.17;0.75;;;;;;;13.18;100.00;98390.88;7392489;19;20019;-83
2023/01/07 01:06:44;;;;;;;5.40;0.20;;;;;;;13.02;100.00;98397.41;7394207;19;20046;-82
2023/01/07 01:09:11;;;;;;;0.38;0.20;;;;;;;13.20;100.00;98376.38;7394811;19;20117;-82
2023/01/07 01:11:37;;;;;;;0.20;0.20;;;;;;;13.22;100.00;98340.25;7391858;19;20007;-82
2023/01/07 01:14:03;;;;;;;0.68;0.20;;;;;;;13.11;100.00;98348.78;7391552;19;20439;-82
2023/01/07 01:16:29;;;;;;;2.70;0.35;;;;;;;13.29;100.00;98351.59;7393378;19;20019;-83
2023/01/07 01:18:55;;;;;;;0.30;0.20;;;;;;;13.19;100.00;98353.25;7395518;19;20509;-82
2023/01/07 01:21:21;;;;;;;0.00;0.00;;;;;;;13.08;100.00;98353.41;7392927;19;20086;-82
2023/01/07 01:23:47;;;;;;;0.40;0.20;;;;;;;12.89;100.00;98347.78;7393230;19;20675;-82
2023/01/07 01:26:15;;;;;;;0.40;0.30;;;;;;;12.95;100.00;98333.72;7393468;19;20029;-82
2023/01/07 01:28:42;;;;;;;0.10;0.10;;;;;;;12.76;100.00;98328.16;7396516;19;20039;-82
2023/01/07 01:31:10;;;;;;;2.15;0.20;;;;;;;13.05;100.00;98311.78;7389700;19;20014;-83
2023/01/07 01:33:56;;;;;;;0.28;0.20;;;;;;;13.09;100.00;98301.81;7390321;19;20022;-82
2023/01/07 01:36:23;;;;;;;1.30;0.20;;;;;;;13.02;100.00;98301.63;7392360;19;20450;-82
2023/01/07 01:38:51;;;;;;;0.55;0.10;;;;;;;12.68;100.00;98301.34;7393585;19;20022;-82
2023/01/07 01:41:17;;;;;;;0.95;0.57;;;;;;;12.56;100.00;98302.78;7390384;19;20472;-82
2023/01/07 01:43:45;;;;;;;0.38;0.30;;;;;;;12.31;100.00;98296.47;7386505;19;20018;-82
2023/01/07 01:46:37;;;;;;;10.25;0.40;;;;;;;12.19;100.00;98304.19;7388765;19;20018;-81
2023/01/07 01:49:28;;;;;;;0.45;0.00;;;;;;;12.40;100.00;98284.19;7388081;19;20073;-83
2023/01/07 01:52:02;;;;;;;0.00;0.00;;;;;;;12.10;100.00;98276.66;7389642;19;20031;-82
2023/01/07 01:54:28;;;;;;;0.00;0.00;;;;;;;12.05;100.00;98271.91;7390927;19;20359;-83
2023/01/07 01:57:00;;;;;;;3.05;0.57;;;;;;;12.28;100.00;98285.59;7390567;19;20018;-82
2023/01/07 01:59:31;;;;;;;0.00;0.00;;;;;;;12.27;100.00;98265.31;7389477;19;20018;-82
2023/01/07 02:02:01;;;;;;;0.75;0.30;;;;;;;12.41;100.00;98263.38;7394895;19;20602;-81
2023/01/07 02:04:29;;;;;;;0.08;0.08;;;;;;;12.44;100.00;98257.47;7394985;19;20018;-82
2023/01/07 02:07:10;;;;;;;0.55;0.00;;;;;;;12.45;100.00;98252.66;7397002;19;20540;-82
2023/01/07 02:09:41;;;;;;;0.50;0.20;;;;;;;12.50;100.00;98260.19;7393987;19;20495;-82
2023/01/07 02:12:26;;;;;;;0.10;0.10;;;;;;;12.92;100.00;98251.00;7389735;19;20022;-82
2023/01/07 02:15:10;;;;;;;0.98;0.30;;;;;;;13.00;100.00;98243.50;7392165;19;20028;-82
2023/01/07 02:17:42;;;;;;;0.00;0.00;;;;;;;12.58;100.00;98244.38;7391991;19;20019;-83
2023/01/07 02:20:46;;;;;;;0.03;0.03;;;;;;;12.47;100.00;98252.88;7385574;19;20018;-82
2023/01/07 02:23:36;;;;;;;0.13;0.00;;;;;;;12.47;100.00;98239.69;7388513;19;20010;-82
2023/01/07 02:26:29;;;;;;;1.48;0.32;;;;;;;12.76;100.00;98238.00;7390843;19;20014;-82
2023/01/07 02:29:26;;;;;;;0.52;0.50;;;;;;;12.92;100.00;98242.59;7390046;19;20019;-82
2023/01/07 02:32:20;;;;;;;0.00;0.00;;;;;;;12.79;100.00;98242.53;7388615;19;20088;-82
2023/01/07 02:34:52;;;;;;;0.73;0.22;;;;;;;12.32;100.00;98238.63;7392466;19;20022;-82
2023/01/07 02:37:37;;;;;;;0.47;0.20;;;;;;;12.44;100.00;98251.13;7392407;19;20521;-81
2023/01/07 02:40:04;;;;;;;0.20;0.15;;;;;;;12.80;100.00;98244.03;7390022;19;20010;-82
2023/01/07 02:42:57;;;;;;;1.85;0.38;;;;;;;12.51;100.00;98223.38;7393335;19;20022;-83
2023/01/07 02:45:30;;;;;;;0.25;0.10;;;;;;;12.29;100.00;98234.84;7392790;19;20014;-81
2023/01/07 02:48:06;;;;;;;0.00;0.00;;;;;;;12.52;100.00;98226.91;7390862;19;20073;-82
2023/01/07 02:50:33;;;;;;;0.00;0.00;;;;;;;12.50;100.00;98218.31;7388840;19;20377;-84
2023/01/07 02:52:59;;;;;;;0.38;0.08;;;;;;;12.93;100.00;98213.34;7386301;19;20018;-83
2023/01/07 02:55:45;;;;;;;0.28;0.20;;;;;;;12.82;100.00;98202.38;7387333;19;20116;-81
2023/01/07 02:58:21;;;;;;;0.10;0.10;;;;;;;12.75;100.00;98212.13;7388076;19;20014;-83
2023/01/07 03:01:02;;;;;;;0.10;0.10;;;;;;;12.93;100.00;98210.56;7387485;19;20022;-83
2023/01/07 03:03:50;;;;;;;5.22;0.30;;;;;;;13.42;100.00;98197.09;7390975;19;20014;-84
2023/01/07 03:06:37;;;;;;;4.15;0.63;;;;;;;12.84;100.00;98186.56;7392228;19;20488;-83
2023/01/07 03:09:14;;;;;;;0.43;0.00;;;;;;;12.59;100.00;98190.78;7392013;19;20036;-84
2023/01/07 03:11:46;;;;;;;0.10;0.00;;;;;;;13.04;100.00;98209.66;7387517;19;20030;-83
2023/01/07 03:14:36;;;;;;;0.73;0.35;;;;;;;12.82;100.00;98186.34;7388422;19;20018;-83
2023/01/07 03:17:08;;;;;;;0.65;0.10;;;;;;;12.73;100.00;98174.84;7386198;19;20015;-83
2023/01/07 03:19:38;;;;;;;0.10;0.10;;;;;;;13.10;100.00;98172.00;7386239;19;20015;-83
2023/01/07 03:22:07;;;;;;;1.17;0.17;;;;;;;12.70;100.00;98157.09;7385969;19;20123;-84
2023/01/07 03:24:34;;;;;;;0.55;0.10;;;;;;;15.03;100.00;98158.81;7386669;19;20019;-84
2023/01/07 03:27:03;;;;;;;0.80;0.00;;;;;;;14.45;100.00;98152.81;7387757;19;20018;-84
2023/01/07 03:29:34;;;;;;;0.63;0.40;;;;;;;14.83;100.00;98145.59;7387683;19;20018;-84
2023/01/07 03:32:14;;;;;;;0.10;0.10;;;;;;;14.74;100.00;98148.84;7389144;19;20010;-85
2023/01/07 03:34:42;;;;;;;0.30;0.00;;;;;;;13.36;100.00;98143.31;7390375;19;20369;-83
2023/01/07 03:37:12;;;;;;;0.10;0.00;;;;;;;13.32;100.00;98137.31;7386354;19;20041;-84
2023/01/07 03:39:42;;;;;;;0.17;0.10;;;;;;;13.40;100.00;98144.50;7388695;19;20010;-84
2023/01/07 03:44:56;;;;;;;0.20;0.10;;;;;;;14.47;100.00;98110.28;7387622;19;20014;-84
2023/01/07 03:47:27;;;;;;;0.63;0.43;;;;;;;14.27;100.00;98111.72;7389962;19;20772;-84
2023/01/07 03:49:53;;;;;;;4.57;0.90;;;;;;;15.76;100.00;98104.41;7392655;19;20024;-84
2023/01/07 03:52:20;;;;;;;2.45;0.25;;;;;;;14.30;100.00;98099.44;7385522;19;20129;-84
2023/01/07 03:54:46;;;;;;;3.95;0.88;;;;;;;15.61;100.00;98098.72;7386604;19;20018;-84
2023/01/07 03:57:13;;;;;;;1.08;0.63;;;;;;;15.50;100.00;98093.41;7387311;19;20025;-84
2023/01/07 03:59:40;;;;;;;0.00;0.00;;;;;;;15.20;100.00;98105.88;7386666;19;20022;-84
2023/01/07 04:02:06;;;;;;;0.85;0.00;;;;;;;13.55;100.00;98111.19;7388063;19;20019;-85
2023/01/07 04:04:33;;;;;;;0.00;0.00;;;;;;;12.83;100.00;98097.72;7392680;19;20018;-84
2023/01/07 04:06:59;;;;;;;0.10;0.10;;;;;;;12.86;100.00;98093.88;7388710;19;20015;-84
2023/01/07 04:09:26;;;;;;;0.10;0.00;;;;;;;12.84;100.00;98099.25;7388999;19;20025;-84
2023/01/07 04:11:53;;;;;;;0.10;0.08;;;;;;;12.44;100.00;98083.63;7388427;19;20089;-84
2023/01/07 04:14:19;;;;;;;0.20;0.20;;;;;;;13.83;100.00;98076.28;7387868;19;20086;-84
2023/01/07 04:16:45;;;;;;;0.05;0.00;;;;;;;14.10;100.00;98075.66;7386900;19;20010;-84
2023/01/07 04:19:11;;;;;;;1.00;0.10;;;;;;;14.67;100.00;98057.06;7391748;19;20353;-85
2023/01/07 04:21:37;;;;;;;0.55;0.10;;;;;;;14.19;100.00;98063.25;7388628;19;20485;-85
2023/01/07 04:24:05;;;;;;;0.25;0.17;;;;;;;14.47;100.00;98052.19;7387207;19;20051;-85
2023/01/07 04:26:32;;;;;;;0.30;0.30;;;;;;;15.97;100.00;98040.50;7392129;19;20492;-84
2023/01/07 04:28:58;;;;;;;0.08;0.00;;;;;;;14.47;100.00;98029.78;7390965;19;20022;-85
2023/01/07 04:31:26;;;;;;;0.10;0.10;;;;;;;15.85;100.00;98033.72;7386560;19;20033;-84
2023/01/07 04:33:52;;;;;;;4.25;0.35;;;;;;;16.80;100.00;98023.06;7387023;19;20021;-84
2023/01/07 04:36:19;;;;;;;0.47;0.47;;;;;;;16.80;100.00;98006.19;7386273;19;20476;-84
2023/01/07 04:38:48;;;;;;;0.10;0.10;;;;;;;15.44;100.00;98011.47;7389542;19;20079;-85
2023/01/07 04:41:14;;;;;;;0.30;0.22;;;;;;;13.69;100.00;98009.16;7386630;19;20014;-84
2023/01/07 04:43:40;;;;;;;0.85;0.52;;;;;;;13.33;100.00;97999.00;7385716;19;20057;-84
2023/01/07 04:46:07;;;;;;;0.20;0.10;;;;;;;13.15;100.00;97995.03;7386410;19;20014;-85
2023/01/07 04:48:34;;;;;;;0.98;0.10;;;;;;;13.39;100.00;97988.44;7387214;19;20108;-85
2023/01/07 04:51:01;;;;;;;0.10;0.08;;;;;;;12.86;100.00;97990.50;7386549;19;20018;-84
2023/01/07 04:53:28;;;;;;;2.63;0.70;;;;;;;12.97;100.00;97979.13;7382966;19;20015;-85
2023/01/07 04:55:55;;;;;;;0.35;0.20;;;;;;;14.63;100.00;97963.44;7386538;19;20019;-84
2023/01/07 04:58:22;;;;;;;4.50;0.20;;;;;;;15.57;100.00;97955.22;7389445;19;20021;-84
2023/01/07 05:00:48;;;;;;;1.55;0.13;;;;;;;14.30;100.00;97953.84;7390932;19;20025;-85
2023/01/07 05:03:14;;;;;;;0.00;0.00;;;;;;;13.91;100.00;97946.34;7388443;19;20022;-85
2023/01/07 05:05:40;;;;;;;0.85;0.30;;;;;;;14.11;100.00;97931.63;7387660;19;20024;-85
2023/01/07 05:08:06;;;;;;;0.40;0.00;;;;;;;14.44;100.00;97930.06;7391817;19;20019;-85
2023/01/07 05:10:33;;;;;;;0.40;0.30;;;;;;;13.84;100.00;97935.09;7390785;19;20019;-85
2023/01/07 05:13:04;;;;;;;1.20;0.20;;;;;;;15.42;100.00;97938.31;7386755;19;20021;-85
2023/01/07 05:15:31;;;;;;;;;;;;;;;14.09;100.00;97925.06;7387473;19;20014;-85
2023/01/07 05:17:57;;;;;;;0.03;0.00;;;;;;;13.80;100.00;97915.06;7388218;19;19930;-85
2023/01/07 05:20:24;;;;;;;0.00;0.00;;;;;;;13.91;100.00;97917.63;7385981;19;20018;-85
2023/01/07 05:22:51;;;;;;;0.13;0.10;;;;;;;13.54;100.00;97919.47;7385357;19;20082;-85
2023/01/07 05:25:18;;;;;;;6.82;0.55;;;;;;;12.51;100.00;97921.84;7387003;19;20015;-85
2023/01/07 05:27:44;;;;;;;0.10;0.10;;;;;;;12.47;100.00;97909.47;7388354;19;20026;-85
2023/01/07 05:30:11;;;;;;;6.65;0.63;;;;;;;13.09;100.00;97915.38;7387855;19;20500;-85
2023/01/07 05:32:37;;;;;;;0.00;0.00;;;;;;;13.36;100.00;97897.28;7388850;19;20010;-85
2023/01/07 05:35:04;;;;;;;0.13;0.10;;;;;;;13.57;100.00;97890.44;7390183;19;20329;-85
2023/01/07 05:37:30;;;;;;;0.73;0.40;;;;;;;14.08;100.00;97882.31;7387780;19;20475;-85
2023/01/07 05:39:57;;;;;;;0.10;0.10;;;;;;;15.15;100.00;97882.47;7387901;19;20157;-85
2023/01/07 05:42:23;;;;;;;0.90;0.30;;;;;;;15.56;100.00;97872.34;7386760;19;20018;-85
2023/01/07 05:44:50;;;;;;;0.20;0.00;;;;;;;15.55;100.00;97870.84;7387281;19;20062;-85
2023/01/07 05:47:16;;;;;;;1.30;0.10;;;;;;;15.52;100.00;97878.31;7394119;19;20549;-85
2023/01/07 05:49:42;;;;;;;0.13;0.13;;;;;;;16.10;100.00;97863.44;7395344;19;20678;-85
2023/01/07 05:52:09;;;;;;;0.35;0.15;;;;;;;16.13;100.00;97867.94;7394092;19;20022;-85
2023/01/07 05:54:35;;;;;;;0.35;0.20;;;;;;;16.52;100.00;97853.28;7394857;19;20017;-86
2023/01/07 05:57:01;;;;;;;2.03;0.40;;;;;;;16.30;100.00;97845.63;7395277;19;20010;-85
2023/01/07 05:59:27;;;;;;;3.53;0.38;;;;;;;16.48;100.00;97838.84;7394151;19;20369;-85
2023/01/07 06:01:53;;;;;;;0.10;0.10;;;;;;;16.86;100.00;97835.22;7394404;19;20087;-85
2023/01/07 06:04:19;;;;;;;0.52;0.22;;;;;;;16.66;100.00;97817.31;7398511;19;20015;-85
2023/01/07 06:06:45;;;;;;;0.30;0.30;;;;;;;16.94;100.00;97805.00;7394682;19;20365;-84
2023/01/07 06:09:11;;;;;;;3.53;0.30;;;;;;;16.52;100.00;97813.97;7400215;19;20018;-85
2023/01/07 06:11:37;;;;;;;2.38;0.32;;;;;;;16.54;100.00;97811.34;7392942;19;20416;-86
2023/01/07 06:14:04;;;;;;;1.00;0.10;;;;;;;16.70;100.00;97811.31;7398540;19;20019;-85
2023/01/07 06:16:30;;;;;;;0.35;0.15;;;;;;;16.66;100.00;97800.44;7397146;19;20721;-85
2023/01/07 06:18:56;;;;;;;1.42;0.95;;;;;;;16.95;100.00;97795.28;7399750;19;20066;-85
2023/01/07 06:21:22;;;;;;;2.08;1.00;;;;;;;17.07;100.00;97777.41;7396967;19;20014;-85
2023/01/07 06:23:48;;;;;;;0.32;0.20;;;;;;;16.63;100.00;97788.25;7396524;19;20082;-85
2023/01/07 06:26:14;;;;;;;0.43;0.20;;;;;;;16.89;100.00;97772.25;7395959;19;20020;-85
2023/01/07 06:28:40;;;;;;;0.20;0.10;;;;;;;16.68;100.00;97764.84;7399353;19;20029;-85
2023/01/07 06:31:08;;;;;;;0.00;0.00;;;;;;;16.54;100.00;97760.78;7393948;19;20030;-84
2023/01/07 06:33:36;;;;;;;0.10;0.00;;;;;;;16.58;100.00;97749.88;7392474;19;20488;-86
2023/01/07 06:36:03;;;;;;;0.45;0.00;;;;;;;16.38;100.00;97753.66;7394830;19;20044;-85
2023/01/07 06:38:29;;;;;;;0.20;0.17;;;;;;;16.40;100.00;97739.03;7397192;19;20027;-85
2023/01/07 06:40:57;;;;;;;8.30;0.15;;;;;;;16.58;100.00;97744.28;7394438;19;20028;-84
2023/01/07 06:43:24;;;;;;;0.10;0.00;;;;;;;16.74;100.00;97750.56;7392428;19;20104;-85
2023/01/07 06:45:50;;;;;;;4.82;0.57;;;;;;;16.85;100.00;97740.97;7393203;19;20025;-84
2023/01/07 06:48:16;;;;;;;0.20;0.10;;;;;;;16.78;100.00;97739.69;7395692;19;20018;-84
2023/01/07 06:50:43;;;;;;;0.00;0.00;;;;;;;16.89;100.00;97728.00;7392297;19;20041;-85
2023/01/07 06:53:10;;;;;;;0.38;0.03;;;;;;;16.83;100.00;97723.94;7390203;19;20011;-85
2023/01/07 06:55:36;;;;;;;0.10;0.00;;;;;;;16.84;100.00;97720.53;7394342;19;20010;-85
2023/01/07 06:58:02;;;;;;;3.08;0.22;;;;;;;17.03;100.00;97714.44;7394017;19;20018;-83
2023/01/07 07:00:28;;;;;;;0.75;0.43;;;;;;;17.08;100.00;97719.09;7392321;19;20019;-84
2023/01/07 07:02:55;;;;;;;1.33;0.25;;;;;;;16.81;100.00;97715.28;7389990;19;20022;-85
2023/01/07 07:05:21;;;;;;;0.25;0.20;;;;;;;16.98;100.00;97715.41;7393161;19;20018;-85
2023/01/07 07:07:47;;;;;;;0.15;0.10;;;;;;;16.94;100.00;97700.97;7395317;19;20035;-85
2023/01/07 07:10:13;;;;;;;0.10;0.10;;;;;;;17.02;100.00;97691.19;7395771;19;20018;-85
2023/01/07 07:12:40;;;;;;;0.50;0.10;;;;;;;16.82;100.00;97705.56;7389952;19;20015;-84
2023/01/07 07:15:07;;;;;;;1.85;0.15;;;;;;;16.94;100.00;97695.34;7394489;19;20037;-84
2023/01/07 07:17:33;;;;;;;0.30;0.10;;;;;;;16.73;100.00;97695.66;7392901;19;20086;-84
2023/01/07 07:19:59;;;;;;;2.05;0.22;;;;;;;16.65;100.00;97697.78;7389240;19;20018;-84
2023/01/07 07:22:26;;;;;;;0.63;0.30;;;;;;;16.68;100.00;97691.75;7387459;19;20573;-84
2023/01/07 07:24:52;;;;;;;0.30;0.10;;;;;;;16.51;100.00;97688.09;7392523;19;20018;-85
2023/01/07 07:27:18;;;;;;;1.13;0.43;;;;;;;15.86;100.00;97699.13;7393426;19;20018;-83
2023/01/07 07:29:44;;;;;;;3.30;0.17;;;;;;;16.09;100.00;97682.22;7389470;19;20365;-84
2023/01/07 07:32:10;;;;;;;0.10;0.10;;;;;;;16.33;100.00;97672.41;7389830;19;20033;-83
2023/01/07 07:34:36;;;;;;;1.35;0.10;;;;;;;16.41;100.00;97681.56;7393115;19;20023;-84
2023/01/07 07:37:03;;;;;;;4.60;0.40;;;;;;;16.36;100.00;97683.25;7389961;19;20018;-85
2023/01/07 07:39:29;;;;;;;0.20;0.10;;;;;;;16.38;100.00;97675.00;7391433;19;20060;-85
2023/01/07 07:41:55;;;;;;;0.55;0.17;;;;;;;16.63;100.00;97675.84;7391154;19;20512;-85
2023/01/07 07:44:22;;;;;;;2.50;0.30;;;;;;;16.99;100.00;97674.72;7390397;19;20042;-84
2023/01/07 07:46:48;;;;;;;0.10;0.10;;;;;;;17.25;100.00;97676.97;7388138;19;20019;-84
2023/01/07 07:49:14;;;;;;;0.40;0.30;;;;;;;16.95;100.00;97671.56;7394859;19;20098;-84
2023/01/07 07:51:40;;;;;;;8.68;0.30;;;;;;;17.09;100.00;97686.81;7390191;19;20374;-84
2023/01/07 07:54:06;;;;;;;0.30;0.10;;;;;;;17.05;100.00;97690.03;7389388;19;20022;-85
2023/01/07 07:56:33;;;;;;;0.10;0.10;;;;;;;16.98;100.00;97676.03;7387037;19;20034;-85
2023/01/07 07:58:59;;;;;;;0.00;0.00;;;;;;;16.90;100.00;97680.94;7392659;19;20022;-84
2023/01/07 08:01:25;;;;;;;0.00;0.00;;;;;;;16.61;100.00;97681.28;7394892;19;20050;-84
2023/01/07 08:03:51;;;;;;;0.10;0.10;;;;;;;16.97;100.00;97688.59;7389750;19;20019;-85
2023/01/07 08:06:17;;;;;;;0.32;0.32;;;;;;;17.17;100.00;97679.09;7389510;19;20090;-85
2023/01/07 08:08:43;;;;;;;0.30;0.17;;;;;;;17.21;100.00;97682.25;7392376;19;20353;-84
2023/01/07 08:11:09;;;;;;;0.65;0.63;;;;;;;17.31;100.00;97671.84;7390115;19;20022;-84
2023/01/07 08:13:36;;;;;;;0.40;0.20;;;;;;;17.37;100.00;97666.72;7392575;19;20025;-84
2023/01/07 08:16:02;;;;;;;1.98;0.63;;;;;;;17.33;100.00;97663.59;7386277;19;20030;-85
2023/01/07 08:18:28;;;;;;;0.00;0.00;;;;;;;17.28;100.00;97661.75;7391901;19;20120;-85
2023/01/07 08:20:54;;;;;;;0.55;0.10;;;;;;;17.02;100.00;97648.28;7389573;19;20358;-84
2023/01/07 08:23:20;;;;;;;0.00;0.00;;;;;;;17.05;100.00;97649.91;7387811;19;20074;-85
2023/01/07 08:25:46;;;;;;;1.13;0.13;;;;;;;16.53;100.00;97646.13;7391196;19;20018;-85
2023/01/07 08:28:13;;;;;;;0.00;0.00;;;;;;;17.59;100.00;97648.19;7393986;19;20006;-86
2023/01/07 08:30:39;;;;;;;1.75;0.32;;;;;;;17.59;100.00;97639.75;7392178;19;20074;-86
2023/01/07 08:33:06;;;;;;;0.20;0.20;;;;;;;17.67;100.00;97634.81;7391630;19;20542;-88
2023/01/07 08:35:33;;;;;;;0.70;0.30;;;;;;;17.12;100.00;97643.50;7399076;19;20014;-87
2023/01/07 08:38:08;;;;;;;0.00;0.00;;;;;;;17.10;100.00;97626.44;7397278;19;20017;-87
2023/01/07 08:40:36;;;;;;;0.20;0.10;;;;;;;16.45;100.00;97628.53;7397426;19;20019;-87
2023/01/07 08:43:04;;;;;;;1.20;0.63;;;;;;;15.70;100.00;97618.31;7392604;19;20021;-87
2023/01/07 08:45:31;;;;;;;0.10;0.00;;;;;;;13.78;100.00;97623.91;7393502;19;20469;-87
2023/01/07 08:47:58;;;;;;;1.10;0.20;;;;;;;13.40;100.00;97618.13;7395561;19;20770;-87
2023/01/07 08:50:28;;;;;;;0.10;0.00;;;;;;;13.66;100.00;97604.66;7390478;19;20433;-87
2023/01/07 08:52:55;;;;;;;2.35;0.52;;;;;;;12.22;100.00;97604.72;7392075;19;20014;-87
2023/01/07 08:55:22;;;;;;;0.10;0.00;;;;;;;13.14;100.00;97593.91;7393427;19;20026;-87
2023/01/07 08:57:49;;;;;;;1.08;0.10;;;;;;;12.78;100.00;97598.56;7395723;19;20018;-88
2023/01/07 09:00:17;;;;;;;0.20;0.10;;;;;;;12.92;100.00;97586.81;7391737;19;20010;-90
2023/01/07 09:02:44;;;;;;;10.43;0.43;;;;;;;12.87;100.00;97590.47;7396115;19;20666;-89
2023/01/07 09:05:10;;;;;;;0.10;0.10;;;;;;;13.09;100.00;97588.44;7394033;19;20011;-89
2023/01/07 09:07:36;;;;;;;1.42;0.35;;;;;;;12.93;100.00;97587.53;7395564;19;20022;-89
2023/01/07 09:10:04;;;;;;;0.43;0.10;;;;;;;12.89;100.00;97584.34;7394884;19;20015;-88
2023/01/07 09:12:30;;;;;;;2.45;0.13;;;;;;;12.96;100.00;97569.69;7394098;19;20078;-89
2023/01/07 09:14:56;;;;;;;0.85;0.20;;;;;;;12.81;100.00;97561.94;7394622;19;20018;-89
2023/01/07 09:17:22;;;;;;;0.10;0.10;;;;;;;13.48;100.00;97560.94;7394302;19;20006;-90
2023/01/07 09:19:48;;;;;;;0.68;0.45;;;;;;;12.09;100.00;97555.28;7391134;19;20022;-89
2023/01/07 09:22:14;;;;;;;2.67;1.20;;;;;;;12.82;100.00;97543.16;7400756;19;20037;-88
2023/01/07 09:24:41;;;;;;;6.70;0.70;;;;;;;12.56;100.00;97532.84;7399960;19;20579;-88
2023/01/07 09:27:07;;;;;;;5.40;0.73;;;;;;;12.68;100.00;97530.53;7400123;19;20031;-88
2023/01/07 09:29:33;;;;;;;5.05;0.47;;;;;;;12.95;100.00;97523.47;7399331;19;20014;-88
2023/01/07 09:31:59;;;;;;;0.30;0.20;;;;;;;14.78;100.00;97515.97;7399400;19;20018;-88
2023/01/07 09:34:25;;;;;;;5.07;1.00;;;;;;;14.58;100.00;97527.34;7398065;19;20037;-88
2023/01/07 09:36:51;;;;;;;3.40;0.30;;;;;;;14.45;100.00;97517.06;7399980;19;20038;-87
2023/01/07 09:39:17;;;;;;;0.65;0.30;;;;;;;14.02;100.00;97517.91;7399636;19;20073;-87
2023/01/07 09:41:50;;;;;;;2.78;0.80;;;;;;;12.22;100.00;97520.25;7395722;19;20705;-86
2023/01/07 09:44:44;;;;;;;0.47;0.35;;;;;;;12.51;100.00;97513.47;7397012;19;20014;-86
2023/01/07 09:47:13;;;;;;;1.95;0.25;;;;;;;13.64;100.00;97520.53;7397360;19;20039;-86
2023/01/07 09:49:40;;;;;;;0.65;0.40;;;;;;;13.24;100.00;97516.63;7397725;19;20409;-87
2023/01/07 09:52:14;;;;;;;1.38;0.20;;;;;;;12.27;100.00;97511.75;7397566;19;20015;-86
2023/01/07 09:54:44;;;;;;;0.75;0.32;;;;;;;11.94;100.00;97512.53;7397764;19;20047;-86
2023/01/07 09:57:16;;;;;;;1.02;0.20;;;;;;;11.94;100.00;97518.09;7397091;19;20527;-86
2023/01/07 09:59:43;;;;;;;0.00;0.00;;;;;;;11.92;100.00;97521.44;7395606;19;20019;-87
2023/01/07 10:02:18;;;;;;;2.20;0.47;;;;;;;11.97;100.00;97517.78;7399753;19;20364;-85
2023/01/07 10:04:54;;;;;;;3.10;0.47;;;;;;;12.01;100.00;97512.63;7396723;19;20022;-85
2023/01/07 10:07:26;;;;;;;2.08;0.80;;;;;;;12.01;100.00;97528.59;7397836;19;20022;-85
2023/01/07 10:09:55;;;;;;;0.63;0.25;;;;;;;11.90;100.00;97529.59;7396992;19;20018;-82
2023/01/07 10:12:53;;;;;;;7.78;0.30;;;;;;;11.87;100.00;97513.19;7390644;19;20022;-87
2023/01/07 10:15:38;;;;;;;7.68;0.52;;;;;;;11.89;100.00;97539.25;7389553;19;20026;-83
2023/01/07 10:18:31;;;;;;;2.55;0.20;;;;;;;12.04;100.00;97539.41;7390326;19;20411;-83
2023/01/07 10:21:02;;;;;;;0.20;0.00;;;;;;;12.28;100.00;97532.06;7395607;19;20471;-82
2023/01/07 10:23:35;;;;;;;3.63;0.10;;;;;;;12.12;100.00;97545.09;7388688;19;20024;-83
2023/01/07 10:26:02;;;;;;;1.55;0.55;;;;;;;12.29;100.00;97553.81;7391585;19;20019;-82
2023/01/07 10:28:39;;;;;;;0.20;0.00;;;;;;;12.84;100.00;97552.44;7393072;19;20014;-82
2023/01/07 10:31:14;;;;;;;0.28;0.05;;;;;;;12.78;100.00;97554.66;7389775;19;20014;-81
2023/01/07 10:33:40;;;;;;;0.20;0.20;;;;;;;12.72;100.00;97558.88;7386367;19;20018;-81
2023/01/07 10:36:21;;;;;;;3.03;0.30;;;;;;;12.47;100.00;97563.31;7387758;19;20790;-81
2023/01/07 10:38:56;;;;;;;0.00;0.00;;;;;;;13.48;100.00;97552.56;7391748;19;20029;-81
2023/01/07 10:41:28;;;;;;;1.20;0.45;;;;;;;13.16;100.00;97554.22;7392343;19;20029;-81
2023/01/07 10:44:10;;;;;;;0.65;0.30;;;;;;;12.37;100.00;97573.44;7390897;19;20019;-81
2023/01/07 10:46:59;;;;;;;;;;;;;;;13.34;100.00;97550.44;7389365;19;20031;-81
2023/01/07 10:49:49;;;;;;;0.10;0.10;;;;;;;14.02;100.00;97536.72;7388838;19;19924;-80
2023/01/07 10:52:39;;;;;;;0.53;0.30;;;;;;;12.78;100.00;97548.31;7388786;19;20018;-81
2023/01/07 10:55:17;;;;;;;3.10;0.63;;;;;;;14.01;100.00;97535.25;7389259;19;20014;-81
2023/01/07 10:57:46;;;;;;;0.00;0.00;;;;;;;13.85;100.00;97550.47;7390782;19;20018;-81
2023/01/07 11:00:15;;;;;;;0.40;0.40;;;;;;;14.83;100.00;97540.25;7388007;19;20014;-81
2023/01/07 11:02:51;;;;;;;0.10;0.10;;;;;;;13.45;100.00;97536.13;7392185;19;20014;-80
2023/01/07 11:05:20;;;;;;;0.30;0.10;;;;;;;14.71;100.00;97544.72;7390648;19;20013;-80
2023/01/07 11:07:51;;;;;;;6.00;0.52;;;;;;;14.51;100.00;97542.81;7390121;19;20102;-80
2023/01/07 11:10:24;;;;;;;0.03;0.00;;;;;;;14.34;100.00;97537.03;7393541;19;20015;-80
2023/01/07 11:13:14;;;;;;;0.52;0.43;;;;;;;14.46;100.00;97537.41;7391110;19;20014;-80
2023/01/07 11:15:47;;;;;;;0.10;0.00;;;;;;;16.85;100.00;97530.13;7388202;19;20014;-80
2023/01/07 11:18:25;;;;;;;2.28;0.30;;;;;;;16.91;100.00;97536.25;7389891;19;20240;-81
2023/01/07 11:20:54;;;;;;;0.50;0.50;;;;;;;14.77;100.00;97539.69;7387034;19;20074;-80
2023/01/07 11:23:28;;;;;;;7.63;0.30;;;;;;;14.77;100.00;97531.28;7386007;19;20078;-80
2023/01/07 11:26:23;;;;;;;0.03;0.00;;;;;;;14.61;100.00;97541.00;7391751;19;20033;-80
2023/01/07 11:28:54;;;;;;;0.10;0.10;;;;;;;14.64;100.00;97537.06;7393285;19;20037;-81
2023/01/07 11:31:41;;;;;;;1.48;0.38;;;;;;;14.73;100.00;97535.75;7388635;19;20025;-81
2023/01/07 11:34:24;;;;;;;0.30;0.10;;;;;;;14.95;100.00;97530.16;7389024;19;20535;-81
2023/01/07 11:36:51;;;;;;;1.30;0.32;;;;;;;16.35;100.00;97532.88;7389614;19;20584;-82
2023/01/07 11:39:18;;;;;;;0.00;0.00;;;;;;;16.53;100.00;97528.84;7396177;19;20055;-83
2023/01/07 11:42:37;;;;;;;0.00;0.00;;;;;;;16.72;100.00;97533.22;7393239;19;20026;-82
2023/01/07 11:44:46;;;;;;;0.57;0.20;;;;;;;15.63;100.00;97523.69;7392862;19;20018;-81